Time;durP1;ratioP1;P1;durP2;ratioP2;P2;SDS_P1;SDS_P2;PMS_P1;PMS_P2;Temp;Humidity;BMP_temperature;BMP_pressure;BME280_temperature;BME280_humidity;BME280_pressure;Samples;Min_cycle;Max_cycle;Signal;HPM_P1;HPM_P2
2022/11/15 00:01:38;;;;;;;4.20;3.10;;;10.80;99.90;;;;;;5024830;28;20256;-87
2022/11/15 00:04:05;;;;;;;3.38;2.95;;;10.80;99.90;;;;;;5021604;28;20296;-87
2022/11/15 00:06:30;;;;;;;4.95;2.90;;;10.70;99.90;;;;;;5025203;28;20729;-87
2022/11/15 00:09:00;;;;;;;6.27;2.70;;;10.70;99.90;;;;;;5030649;28;20182;-87
2022/11/15 00:11:26;;;;;;;3.60;2.88;;;10.60;99.90;;;;;;5019207;28;20521;-89
2022/11/15 00:13:55;;;;;;;6.28;3.30;;;10.60;99.90;;;;;;5024663;28;20190;-89
2022/11/15 00:16:21;;;;;;;4.22;2.17;;;10.60;99.90;;;;;;5022299;28;20178;-89
2022/11/15 00:18:46;;;;;;;2.87;2.23;;;10.60;99.90;;;;;;5025990;28;20186;-89
2022/11/15 00:21:13;;;;;;;2.50;1.93;;;10.60;99.90;;;;;;5028885;28;20174;-89
2022/11/15 00:23:39;;;;;;;3.40;2.58;;;;;;;;;;5056160;22;20311;-90
2022/11/15 00:26:05;;;;;;;3.10;2.50;;;;;;;;;;5076590;28;20354;-92
2022/11/15 00:28:31;;;;;;;4.03;1.77;;;;;;;;;;5059781;28;21522;-92
2022/11/15 00:31:01;;;;;;;3.03;1.93;;;10.70;99.90;;;;;;5037203;28;20295;-90
2022/11/15 00:33:27;;;;;;;3.40;2.17;;;10.40;99.90;;;;;;5046552;28;20514;-88
2022/11/15 00:35:53;;;;;;;2.27;2.07;;;10.60;99.90;;;;;;5044665;28;20280;-91
2022/11/15 00:38:18;;;;;;;4.20;2.90;;;10.60;99.90;;;;;;5038107;28;20177;-90
2022/11/15 00:40:44;;;;;;;3.73;2.03;;;10.60;99.90;;;;;;5049818;28;20270;-91
2022/11/15 00:43:09;;;;;;;4.30;2.40;;;10.60;99.90;;;;;;5033849;28;20222;-90
2022/11/15 00:45:35;;;;;;;4.73;2.50;;;10.60;99.90;;;;;;5040502;28;20829;-90
2022/11/15 00:48:00;;;;;;;2.50;2.20;;;10.60;99.90;;;;;;5037190;28;20185;-90
2022/11/15 00:50:26;;;;;;;4.80;2.33;;;10.50;99.90;;;;;;5041434;28;20220;-90
2022/11/15 00:52:51;;;;;;;3.17;2.33;;;10.50;99.90;;;;;;5043048;28;20311;-90
2022/11/15 00:55:18;;;;;;;2.70;2.03;;;10.50;99.90;;;;;;5040444;28;20177;-90
2022/11/15 00:57:44;;;;;;;3.28;2.15;;;10.50;99.90;;;;;;5056417;28;20268;-89
2022/11/15 01:00:10;;;;;;;6.13;2.67;;;10.40;99.90;;;;;;5038091;28;20307;-91
2022/11/15 01:02:35;;;;;;;3.30;3.00;;;10.40;99.90;;;;;;5046196;28;20489;-91
2022/11/15 01:05:01;;;;;;;3.67;2.70;;;10.30;99.90;;;;;;5054750;28;21001;-91
2022/11/15 01:07:26;;;;;;;4.80;1.87;;;10.30;99.90;;;;;;5047889;28;22678;-91
2022/11/15 01:09:52;;;;;;;4.73;1.80;;;10.30;99.90;;;;;;5052288;28;20229;-91
2022/11/15 01:12:19;;;;;;;4.40;3.10;;;10.30;99.90;;;;;;5065772;28;20292;-92
2022/11/15 01:14:45;;;;;;;4.37;2.40;;;;;;;;;;5053187;28;20757;-90
2022/11/15 01:17:11;;;;;;;4.47;2.50;;;;;;;;;;5051224;28;20213;-91
2022/11/15 01:19:37;;;;;;;5.43;2.17;;;;;;;;;;5057276;28;20443;-91
2022/11/15 01:22:03;;;;;;;1.60;1.20;;;;;;;;;;5052099;28;21998;-91
2022/11/15 01:24:28;;;;;;;2.93;2.10;;;;;;;;;;5068713;28;21026;-91
2022/11/15 01:26:54;;;;;;;2.83;2.33;;;10.40;99.90;;;;;;5051187;28;20490;-91
2022/11/15 01:29:20;;;;;;;2.87;1.87;;;;;;;;;;5058478;28;20463;-90
2022/11/15 01:31:45;;;;;;;3.97;2.50;;;10.40;99.90;;;;;;5072618;28;20229;-89
2022/11/15 01:34:11;;;;;;;4.17;2.30;;;10.40;99.90;;;;;;5072319;28;20442;-91
2022/11/15 01:36:36;;;;;;;3.40;2.37;;;10.40;99.90;;;;;;5061959;28;20224;-90
2022/11/15 01:39:02;;;;;;;2.23;1.53;;;10.30;99.90;;;;;;5051008;28;20577;-91
2022/11/15 01:41:32;;;;;;;5.10;2.77;;;10.30;99.90;;;;;;5061789;28;20473;-90
2022/11/15 01:44:33;;;;;;;5.10;2.75;;;10.30;99.90;;;;;;5052140;28;20200;-91
2022/11/15 01:47:01;;;;;;;7.30;2.28;;;10.20;99.90;;;;;;5046565;28;20268;-91
2022/11/15 01:49:32;;;;;;;6.05;2.60;;;11.40;99.90;;;;;;5051479;28;20328;-91
2022/11/15 01:51:58;;;;;;;2.92;2.28;;;10.10;99.90;;;;;;5051504;28;20181;-90
2022/11/15 01:54:24;;;;;;;3.00;2.70;;;9.90;99.90;;;;;;5050063;28;20243;-87
2022/11/15 01:57:06;;;;;;;3.53;2.33;;;9.80;99.90;;;;;;5065841;28;20189;-88
2022/11/15 01:59:32;;;;;;;7.40;2.20;;;;;;;;;;5055736;28;20189;-89
2022/11/15 02:01:58;;;;;;;4.05;2.50;;;10.00;99.90;;;;;;5062965;28;20200;-89
2022/11/15 02:04:31;;;;;;;4.70;2.17;;;10.00;99.90;;;;;;5056668;28;20268;-89
2022/11/15 02:06:56;;;;;;;3.63;2.50;;;9.90;99.90;;;;;;5058008;28;20243;-89
2022/11/15 02:09:22;;;;;;;3.57;1.77;;;9.80;99.90;;;;;;5056573;28;20701;-90
2022/11/15 02:11:49;;;;;;;5.43;2.77;;;;;;;;;;5057252;28;20295;-88
2022/11/15 02:14:17;;;;;;;3.25;2.10;;;9.70;99.90;;;;;;5071044;28;20573;-89
2022/11/15 02:16:56;;;;;;;4.05;2.20;;;9.70;99.90;;;;;;5055037;28;20879;-89
2022/11/15 02:19:31;;;;;;;7.80;1.98;;;9.80;99.90;;;;;;5052535;28;20988;-90
2022/11/15 02:22:34;;;;;;;4.47;2.85;;;9.80;99.90;;;;;;5054050;28;20661;-90
2022/11/15 02:25:38;;;;;;;5.43;2.72;;;9.80;99.90;;;;;;5068042;28;20704;-88
2022/11/15 02:28:42;;;;;;;2.25;1.80;;;9.90;99.90;;;;;;5067157;28;20736;-90
2022/11/15 02:31:35;;;;;;;2.28;1.60;;;10.10;99.90;;;;;;5053108;28;20204;-90
2022/11/15 02:34:13;;;;;;;4.85;2.38;;;10.10;99.90;;;;;;5067837;28;20181;-89
2022/11/15 02:37:23;;;;;;;6.30;2.00;;;10.20;99.90;;;;;;5065856;28;20271;-89
2022/11/15 02:39:51;;;;;;;3.05;2.30;;;10.20;99.90;;;;;;5060583;28;20197;-90
2022/11/15 02:45:24;;;;;;;5.85;1.98;;;10.20;99.90;;;;;;5053349;28;20251;-89
2022/11/15 02:47:54;;;;;;;2.10;1.63;;;10.30;99.90;;;;;;5050849;28;20173;-91
2022/11/15 02:50:23;;;;;;;4.68;2.70;;;10.30;99.90;;;;;;5060293;28;20375;-90
2022/11/15 02:52:49;;;;;;;5.57;2.60;;;10.40;99.90;;;;;;5053932;28;20181;-89
2022/11/15 02:55:36;;;;;;;3.72;2.22;;;10.40;99.90;;;;;;5071960;28;20204;-90
2022/11/15 02:58:23;;;;;;;2.75;2.17;;;10.50;99.90;;;;;;5051000;28;20169;-90
2022/11/15 03:01:07;;;;;;;2.40;2.10;;;10.60;99.90;;;;;;5071276;28;20235;-90
2022/11/15 03:04:11;;;;;;;3.13;2.15;;;10.60;99.90;;;;;;5062291;28;20308;-89
2022/11/15 03:06:52;;;;;;;6.93;2.38;;;10.70;99.90;;;;;;5017229;28;20266;-90
2022/11/15 03:09:46;;;;;;;4.10;2.45;;;10.70;99.90;;;;;;5062897;28;20240;-90
2022/11/15 03:12:27;;;;;;;2.40;1.90;;;10.70;99.90;;;;;;5047641;28;20265;-90
2022/11/15 03:15:09;;;;;;;4.80;2.60;;;10.80;99.90;;;;;;5064640;28;20768;-90
2022/11/15 03:17:46;;;;;;;3.67;2.30;;;10.80;99.90;;;;;;5048958;28;20177;-90
2022/11/15 03:20:15;;;;;;;2.28;1.92;;;10.70;99.90;;;;;;5050910;28;20204;-89
2022/11/15 03:22:44;;;;;;;4.43;2.35;;;10.70;99.90;;;;;;5051335;28;20246;-89
2022/11/15 03:25:20;;;;;;;2.75;1.98;;;10.70;99.90;;;;;;5051494;28;20181;-90
2022/11/15 03:27:50;;;;;;;3.42;2.03;;;10.60;99.90;;;;;;5049951;28;20208;-90
2022/11/15 03:30:17;;;;;;;2.88;1.83;;;12.20;99.90;;;;;;5048028;28;20212;-89
2022/11/15 03:32:47;;;;;;;1.88;1.40;;;10.60;99.90;;;;;;5062385;28;20211;-89
2022/11/15 03:35:17;;;;;;;4.13;2.28;;;10.60;99.90;;;;;;5045678;28;20193;-90
2022/11/15 03:38:01;;;;;;;4.97;1.88;;;10.60;99.90;;;;;;5065931;28;20641;-90
2022/11/15 03:40:38;;;;;;;6.00;2.13;;;10.50;99.90;;;;;;5058689;28;20711;-91
2022/11/15 03:43:28;;;;;;;2.45;2.20;;;10.60;99.90;;;;;;5067281;28;20204;-90
2022/11/15 03:46:07;;;;;;;6.13;1.77;;;10.70;99.90;;;;;;5059521;28;20192;-90
2022/11/15 03:48:51;;;;;;;2.60;1.90;;;10.60;99.90;;;;;;5051452;28;20202;-89
2022/11/15 03:51:17;;;;;;;3.75;2.10;;;10.60;99.90;;;;;;5046259;28;20287;-90
2022/11/15 03:53:43;;;;;;;2.90;2.05;;;10.60;99.90;;;;;;5051494;28;20291;-90
2022/11/15 03:56:08;;;;;;;1.77;1.40;;;10.60;99.90;;;;;;5050258;28;20575;-91
2022/11/15 03:58:34;;;;;;;1.53;1.43;;;10.90;99.90;;;;;;5052628;28;20250;-89
2022/11/15 04:01:00;;;;;;;3.60;1.70;;;;;;;;;;5049232;28;20214;-89
2022/11/15 04:03:26;;;;;;;3.63;1.40;;;;;;;;;;5059007;28;20204;-89
2022/11/15 04:05:52;;;;;;;2.70;1.57;;;;;;;;;;5068391;28;20446;-90
2022/11/15 04:08:17;;;;;;;2.80;1.30;;;10.90;99.90;;;;;;5058217;28;20436;-89
2022/11/15 04:10:43;;;;;;;3.23;1.40;;;11.00;99.90;;;;;;5073269;28;20534;-89
2022/11/15 04:15:38;;;;;;;4.10;1.77;;;11.10;99.90;;;;;;5042242;28;20229;-86
2022/11/15 04:18:03;;;;;;;6.23;1.50;;;11.10;99.90;;;;;;5048448;28;20201;-86
2022/11/15 04:26:11;;;;;;;2.92;1.42;;;11.30;99.90;;;;;;5056358;28;20196;-86
2022/11/15 04:29:34;;;;;;;2.75;1.52;;;11.30;99.90;;;;;;5059796;28;20174;-86
2022/11/15 04:31:26;;;;;;;2.33;1.52;;;11.30;99.90;;;;;;5048119;28;20830;-86
2022/11/15 04:33:52;;;;;;;1.58;1.17;;;11.30;99.90;;;;;;5042669;28;20201;-86
2022/11/15 04:39:02;;;;;;;1.40;1.20;;;11.20;99.90;;;;;;5041438;28;20199;-84
2022/11/15 04:41:29;;;;;;;1.80;1.30;;;11.20;99.90;;;;;;5052991;28;20189;-85
2022/11/15 04:43:55;;;;;;;2.53;1.30;;;11.20;99.90;;;;;;5045764;28;20296;-88
2022/11/15 04:46:24;;;;;;;3.93;2.00;;;11.20;99.90;;;;;;5038814;28;20264;-87
2022/11/15 04:48:50;;;;;;;1.27;1.17;;;11.20;99.90;;;;;;5050772;28;20182;-86
2022/11/15 04:51:17;;;;;;;1.90;1.48;;;11.10;99.90;;;;;;5046646;28;20181;-86
2022/11/15 04:53:42;;;;;;;2.55;1.70;;;11.20;99.90;;;;;;5044849;28;20213;-85
2022/11/15 04:56:08;;;;;;;7.70;1.60;;;11.20;99.90;;;;;;5053280;28;20185;-86
2022/11/15 04:58:34;;;;;;;1.00;0.87;;;11.20;99.90;;;;;;5058505;28;20233;-86
2022/11/15 05:01:07;;;;;;;5.07;1.50;;;11.10;99.90;;;;;;5041881;28;21085;-87
2022/11/15 05:06:17;;;;;;;2.10;1.40;;;11.10;99.90;;;;;;5041293;28;20223;-85
2022/11/15 05:08:42;;;;;;;4.17;1.77;;;11.10;99.90;;;;;;5039564;28;20182;-86
2022/11/15 05:11:08;;;;;;;1.37;1.27;;;11.10;99.90;;;;;;5036145;28;20228;-85
2022/11/15 05:13:33;;;;;;;2.67;1.70;;;11.00;99.90;;;;;;5037261;28;20209;-87
2022/11/15 05:16:02;;;;;;;4.50;1.70;;;10.90;99.90;;;;;;5046174;28;20200;-88
2022/11/15 05:18:28;;;;;;;2.08;1.60;;;10.80;99.90;;;;;;5047416;28;20232;-87
2022/11/15 05:20:53;;;;;;;1.97;1.77;;;10.80;99.90;;;;;;5042241;28;20548;-87
2022/11/15 05:23:19;;;;;;;5.20;1.87;;;10.80;99.90;;;;;;5043072;28;20210;-86
2022/11/15 05:25:44;;;;;;;3.23;1.63;;;10.70;99.90;;;;;;5039684;28;20173;-86
2022/11/15 05:28:10;;;;;;;2.80;1.50;;;10.70;99.90;;;;;;5037808;28;20244;-86
2022/11/15 05:30:35;;;;;;;1.83;1.33;;;10.70;99.90;;;;;;5048237;28;20224;-86
2022/11/15 05:33:01;;;;;;;1.17;0.77;;;10.80;99.90;;;;;;5043033;28;20743;-87
2022/11/15 05:35:35;;;;;;;2.13;1.20;;;10.80;99.90;;;;;;5043592;28;20188;-87
2022/11/15 05:38:09;;;;;;;2.38;1.42;;;10.80;99.90;;;;;;5039366;28;20439;-86
2022/11/15 05:40:34;;;;;;;3.30;1.67;;;10.80;99.90;;;;;;5051261;28;20194;-88
2022/11/15 05:43:01;;;;;;;4.10;1.70;;;10.80;99.90;;;;;;5044903;28;20278;-89
2022/11/15 05:45:28;;;;;;;3.28;1.33;;;10.80;99.90;;;;;;5041534;28;20443;-88
2022/11/15 05:47:56;;;;;;;4.35;2.13;;;10.70;99.90;;;;;;5042165;28;20646;-89
2022/11/15 05:50:25;;;;;;;2.53;1.30;;;10.70;99.90;;;;;;5042336;28;20178;-87
2022/11/15 05:52:51;;;;;;;4.00;1.92;;;10.60;99.90;;;;;;5037840;28;20205;-88
2022/11/15 05:55:17;;;;;;;3.15;1.65;;;10.60;99.90;;;;;;5041336;28;20169;-87
2022/11/15 05:57:43;;;;;;;2.70;1.80;;;10.50;99.90;;;;;;5032523;28;20697;-85
2022/11/15 06:00:09;;;;;;;2.53;1.87;;;10.50;99.90;;;;;;5034391;28;20442;-85
2022/11/15 06:02:35;;;;;;;2.20;1.65;;;10.30;99.90;;;;;;5040277;28;20270;-86
2022/11/15 06:05:00;;;;;;;3.70;1.60;;;10.30;99.90;;;;;;5034904;28;20177;-86
2022/11/15 06:07:26;;;;;;;1.97;1.47;;;10.40;99.90;;;;;;5041971;28;20182;-86
2022/11/15 06:09:57;;;;;;;2.00;1.37;;;10.50;99.90;;;;;;5042770;28;20451;-86
2022/11/15 06:12:23;;;;;;;3.78;2.35;;;10.50;99.90;;;;;;5037148;28;20200;-87
2022/11/15 06:14:50;;;;;;;2.70;1.25;;;10.50;99.90;;;;;;5035185;28;20282;-85
2022/11/15 06:17:16;;;;;;;5.22;1.70;;;10.70;99.90;;;;;;5044679;28;20661;-86
2022/11/15 06:19:42;;;;;;;2.10;1.23;;;10.80;99.90;;;;;;5049883;28;20193;-85
2022/11/15 06:22:11;;;;;;;7.43;2.00;;;10.90;99.90;;;;;;5054985;28;20629;-86
2022/11/15 06:24:36;;;;;;;2.50;1.60;;;11.00;99.90;;;;;;5040144;28;20200;-85
2022/11/15 06:27:02;;;;;;;4.43;1.00;;;11.00;99.90;;;;;;5033461;28;20178;-86
2022/11/15 06:29:27;;;;;;;7.77;1.50;;;11.10;99.90;;;;;;5038108;28;20197;-86
2022/11/15 06:31:53;;;;;;;1.53;1.00;;;11.20;99.90;;;;;;5037481;28;20177;-88
2022/11/15 06:34:18;;;;;;;2.40;1.00;;;11.20;99.90;;;;;;5037584;28;20205;-87
2022/11/15 06:36:44;;;;;;;3.33;1.00;;;11.20;99.90;;;;;;5041413;28;20224;-85
2022/11/15 06:39:09;;;;;;;2.00;1.27;;;11.20;99.90;;;;;;5035751;28;20217;-86
2022/11/15 06:41:39;;;;;;;2.43;1.30;;;11.10;99.90;;;;;;5035957;28;20688;-86
2022/11/15 06:44:04;;;;;;;1.77;1.60;;;11.20;99.90;;;;;;5040308;28;20212;-86
2022/11/15 06:46:30;;;;;;;2.10;1.67;;;11.00;99.90;;;;;;5038862;28;20598;-88
2022/11/15 06:48:55;;;;;;;3.10;1.70;;;11.10;99.90;;;;;;5041620;28;20177;-87
2022/11/15 06:51:21;;;;;;;3.27;1.70;;;11.10;99.90;;;;;;5044600;28;20289;-89
2022/11/15 06:53:47;;;;;;;3.87;2.03;;;11.50;99.90;;;;;;5063659;28;20205;-88
2022/11/15 06:56:13;;;;;;;1.48;1.38;;;11.10;99.90;;;;;;5037836;28;20283;-87
2022/11/15 06:58:40;;;;;;;6.10;1.73;;;11.10;99.90;;;;;;5043318;28;20206;-89
2022/11/15 07:01:09;;;;;;;2.80;1.90;;;11.00;99.90;;;;;;5045447;28;20196;-87
2022/11/15 07:03:36;;;;;;;2.33;1.40;;;11.00;99.90;;;;;;5038004;28;20775;-86
2022/11/15 07:06:02;;;;;;;2.85;2.00;;;11.10;99.90;;;;;;5046036;28;20188;-88
2022/11/15 07:08:29;;;;;;;3.47;2.03;;;11.30;99.90;;;;;;5038685;28;20186;-87
2022/11/15 07:10:58;;;;;;;3.80;2.00;;;11.50;99.90;;;;;;5034209;28;20181;-89
2022/11/15 07:13:28;;;;;;;1.92;1.73;;;11.60;99.90;;;;;;5042152;28;20205;-85
2022/11/15 07:15:55;;;;;;;3.55;1.80;;;11.60;99.90;;;;;;5034469;28;20195;-89
2022/11/15 07:18:27;;;;;;;3.92;1.60;;;11.60;99.90;;;;;;5039411;28;20181;-86
2022/11/15 07:20:53;;;;;;;5.95;1.80;;;11.80;99.90;;;;;;5040665;28;20173;-86
2022/11/15 07:23:18;;;;;;;2.27;1.40;;;12.20;99.90;;;;;;5045737;28;20221;-86
2022/11/15 07:25:44;;;;;;;5.93;1.97;;;12.40;99.90;;;;;;5039239;28;20188;-87
2022/11/15 07:28:13;;;;;;;1.80;1.50;;;12.40;99.90;;;;;;5034955;28;20192;-87
2022/11/15 07:30:39;;;;;;;3.20;1.37;;;12.60;99.90;;;;;;5039490;28;20185;-86
2022/11/15 07:33:04;;;;;;;2.37;1.73;;;12.80;99.90;;;;;;5035344;28;20463;-85
2022/11/15 07:35:30;;;;;;;2.87;1.67;;;12.80;99.90;;;;;;5039784;28;20276;-88
2022/11/15 07:37:58;;;;;;;2.50;1.77;;;13.50;99.90;;;;;;5044466;28;20553;-87
2022/11/15 07:40:24;;;;;;;2.93;1.80;;;13.70;99.90;;;;;;5051817;28;20190;-87
2022/11/15 07:42:52;;;;;;;4.87;1.90;;;13.60;99.90;;;;;;5042952;28;20473;-87
2022/11/15 07:45:18;;;;;;;11.13;2.30;;;13.30;99.90;;;;;;5064442;28;20428;-87
2022/11/15 07:47:49;;;;;;;2.23;1.60;;;13.30;99.90;;;;;;5038359;28;20437;-87
2022/11/15 07:50:23;;;;;;;1.83;1.50;;;13.20;99.90;;;;;;5041460;28;20428;-86
2022/11/15 07:52:57;;;;;;;6.43;2.03;;;12.90;99.90;;;;;;5040917;28;20561;-86
2022/11/15 07:55:25;;;;;;;3.03;1.77;;;12.70;99.90;;;;;;5041034;28;21176;-88
2022/11/15 07:57:50;;;;;;;2.73;2.20;;;12.50;99.90;;;;;;5035662;28;20913;-86
2022/11/15 08:00:17;;;;;;;3.70;1.63;;;12.50;99.90;;;;;;5032759;28;20439;-85
2022/11/15 08:02:42;;;;;;;4.70;2.33;;;12.50;99.90;;;;;;5036958;28;20711;-86
2022/11/15 08:05:10;;;;;;;1.63;1.50;;;12.60;99.90;;;;;;5041121;28;20456;-86
2022/11/15 08:07:37;;;;;;;3.30;1.90;;;12.50;99.90;;;;;;5056825;28;20185;-88
2022/11/15 08:10:05;;;;;;;2.30;1.60;;;12.60;99.90;;;;;;5049383;28;20870;-87
2022/11/15 08:12:31;;;;;;;2.80;1.90;;;12.40;99.90;;;;;;5038509;28;20436;-87
2022/11/15 08:14:57;;;;;;;1.90;1.33;;;12.40;99.90;;;;;;5037176;28;20451;-88
2022/11/15 08:17:25;;;;;;;4.23;1.90;;;12.40;99.90;;;;;;5038315;28;20205;-88
2022/11/15 08:19:51;;;;;;;2.50;1.50;;;12.60;99.90;;;;;;5046452;28;20182;-86
2022/11/15 08:22:17;;;;;;;1.80;1.67;;;12.80;99.90;;;;;;5042793;28;20551;-86
2022/11/15 08:24:43;;;;;;;2.60;1.63;;;13.40;99.90;;;;;;5034756;28;20197;-87
2022/11/15 08:27:14;;;;;;;3.33;1.37;;;13.40;99.90;;;;;;5032805;28;20415;-84
2022/11/15 08:29:44;;;;;;;1.70;1.60;;;13.50;99.90;;;;;;5043503;28;20437;-85
2022/11/15 08:32:10;;;;;;;5.53;1.90;;;13.50;99.90;;;;;;5039226;28;20427;-86
2022/11/15 08:34:37;;;;;;;4.93;1.60;;;13.50;99.90;;;;;;5044112;28;20995;-85
2022/11/15 08:37:03;;;;;;;2.37;1.60;;;13.40;99.90;;;;;;5043944;28;20464;-88
2022/11/15 08:39:28;;;;;;;4.93;2.00;;;13.20;99.90;;;;;;5037158;28;20469;-86
2022/11/15 08:41:54;;;;;;;2.47;1.53;;;13.10;99.90;;;;;;5041273;28;20182;-85
2022/11/15 08:44:19;;;;;;;4.00;1.70;;;;;;;;;;5037088;28;21110;-86
2022/11/15 08:46:46;;;;;;;3.53;1.70;;;13.20;99.90;;;;;;5041209;28;20182;-86
2022/11/15 08:49:11;;;;;;;7.27;1.90;;;13.40;99.90;;;;;;5037687;28;20789;-87
2022/11/15 08:51:37;;;;;;;3.67;1.57;;;13.60;99.90;;;;;;5036664;28;20435;-85
2022/11/15 08:54:02;;;;;;;5.80;1.90;;;15.50;99.90;;;;;;5044636;28;20216;-85
2022/11/15 08:56:28;;;;;;;1.70;1.23;;;14.20;99.90;;;;;;5044237;28;20197;-86
2022/11/15 08:58:53;;;;;;;3.60;2.17;;;14.60;99.90;;;;;;5045595;28;20185;-88
2022/11/15 09:01:20;;;;;;;5.23;2.23;;;14.90;99.90;;;;;;5053465;28;20228;-86
2022/11/15 09:03:46;;;;;;;8.93;2.47;;;15.00;99.90;;;;;;5049075;28;20697;-87
2022/11/15 09:06:14;;;;;;;7.17;3.33;;;15.10;99.90;;;;;;5038708;28;20450;-86
2022/11/15 09:08:41;;;;;;;3.73;2.57;;;15.20;99.90;;;;;;5053969;28;20173;-86
2022/11/15 09:11:09;;;;;;;6.10;3.00;;;15.30;99.90;;;;;;5038211;28;20667;-88
2022/11/15 09:13:38;;;;;;;4.97;3.57;;;15.30;99.90;;;;;;5039641;28;20462;-85
2022/11/15 09:16:04;;;;;;;6.60;3.13;;;15.60;99.90;;;;;;5041402;28;20508;-87
2022/11/15 09:18:31;;;;;;;8.37;3.57;;;16.10;99.90;;;;;;5046447;28;20479;-88
2022/11/15 09:20:58;;;;;;;3.43;2.70;;;16.00;99.90;;;;;;5056131;28;20447;-89
2022/11/15 09:23:25;;;;;;;5.07;2.80;;;15.90;99.90;;;;;;5038225;28;20558;-86
2022/11/15 09:25:52;;;;;;;2.30;1.90;;;15.80;99.90;;;;;;5044447;28;20989;-87
2022/11/15 09:28:17;;;;;;;4.00;1.60;;;16.20;99.90;;;;;;5036069;28;20549;-88
2022/11/15 09:30:44;;;;;;;1.77;1.63;;;;;;;;;;5035423;28;21076;-86
2022/11/15 09:33:12;;;;;;;4.90;1.53;;;16.10;99.90;;;;;;5053506;28;20259;-86
2022/11/15 09:35:40;;;;;;;2.73;1.30;;;15.70;99.90;;;;;;5048736;28;20474;-89
2022/11/15 09:38:07;;;;;;;5.87;1.50;;;15.30;99.90;;;;;;5042515;28;20494;-86
2022/11/15 09:40:36;;;;;;;2.53;1.57;;;15.10;99.90;;;;;;5042884;28;20456;-88
2022/11/15 09:43:30;;;;;;;6.63;1.43;;;14.90;99.90;;;;;;5038097;28;20494;-86
2022/11/15 09:46:19;;;;;;;3.60;1.60;;;14.70;99.90;;;;;;5036970;28;20436;-87
2022/11/15 09:48:49;;;;;;;2.47;1.50;;;14.80;99.90;;;;;;5043795;28;20444;-87
2022/11/15 09:51:28;;;;;;;3.63;1.50;;;14.70;99.90;;;;;;5045033;28;20493;-85
2022/11/15 09:53:59;;;;;;;6.03;1.60;;;14.80;99.90;;;;;;5044786;28;20463;-86
2022/11/15 09:56:30;;;;;;;5.60;1.40;;;15.00;99.90;;;;;;5034275;28;20445;-86
2022/11/15 09:59:18;;;;;;;3.73;1.53;;;15.20;99.90;;;;;;5039037;28;20531;-87
2022/11/15 10:02:08;;;;;;;10.03;2.10;;;15.20;99.90;;;;;;5041450;28;20436;-87
2022/11/15 10:04:35;;;;;;;3.13;1.40;;;15.10;99.90;;;;;;5049453;28;20464;-85
2022/11/15 10:07:04;;;;;;;4.60;2.67;;;15.10;99.90;;;;;;5043579;28;20519;-86
2022/11/15 10:09:52;;;;;;;3.80;1.90;;;15.20;99.90;;;;;;5040365;28;20559;-87
2022/11/15 10:12:19;;;;;;;3.33;1.93;;;15.10;99.90;;;;;;5044207;28;20518;-87
2022/11/15 10:14:49;;;;;;;1.83;1.40;;;14.80;99.90;;;;;;5052618;28;20467;-86
2022/11/15 10:17:41;;;;;;;2.03;1.37;;;14.80;99.90;;;;;;5035073;28;20435;-85
2022/11/15 10:20:27;;;;;;;4.23;2.10;;;14.70;99.90;;;;;;5046517;28;20439;-87
2022/11/15 10:22:56;;;;;;;4.40;1.90;;;14.50;99.90;;;;;;5046498;28;20887;-86
2022/11/15 10:25:30;;;;;;;4.10;1.70;;;14.30;99.90;;;;;;5046763;28;20460;-86
2022/11/15 10:28:09;;;;;;;2.10;1.90;;;14.30;99.90;;;;;;5035817;28;20474;-86
2022/11/15 10:30:37;;;;;;;5.60;1.50;;;14.20;99.90;;;;;;5056305;28;20438;-85
2022/11/15 10:33:35;;;;;;;2.70;1.63;;;14.20;99.90;;;;;;5058391;28;20470;-88
2022/11/15 10:36:23;;;;;;;3.80;1.90;;;14.20;99.90;;;;;;5049395;28;20440;-85
2022/11/15 10:38:49;;;;;;;2.13;1.53;;;14.20;99.90;;;;;;5038021;28;20558;-87
2022/11/15 10:41:17;;;;;;;3.87;1.87;;;14.00;99.90;;;;;;5044078;28;20460;-87
2022/11/15 10:43:43;;;;;;;1.67;1.27;;;14.20;99.90;;;;;;5045139;28;20234;-87
2022/11/15 10:46:23;;;;;;;10.50;2.20;;;14.30;99.90;;;;;;5040610;28;20437;-88
2022/11/15 10:48:49;;;;;;;3.40;2.17;;;14.40;99.90;;;;;;5042073;28;20185;-85
2022/11/15 10:51:28;;;;;;;6.70;2.17;;;14.30;99.90;;;;;;5042025;28;20534;-86
2022/11/15 10:53:55;;;;;;;5.30;2.40;;;14.20;99.90;;;;;;5037217;28;20209;-84
2022/11/15 10:56:23;;;;;;;7.30;2.60;;;14.30;99.90;;;;;;5039269;28;20476;-84
2022/11/15 10:58:55;;;;;;;6.07;2.40;;;14.40;99.90;;;;;;5042411;28;20444;-88
2022/11/15 11:01:26;;;;;;;5.03;2.73;;;14.50;99.90;;;;;;5042729;28;20455;-86
2022/11/15 11:04:04;;;;;;;4.13;3.27;;;14.70;99.90;;;;;;5035692;28;20479;-86
2022/11/15 11:06:30;;;;;;;6.27;3.60;;;14.80;99.90;;;;;;5037808;28;20442;-87
2022/11/15 11:08:57;;;;;;;3.90;2.70;;;14.80;99.90;;;;;;5039973;28;20444;-88
2022/11/15 11:11:23;;;;;;;5.57;3.77;;;14.90;99.90;;;;;;5046674;28;20876;-87
2022/11/15 11:13:49;;;;;;;19.83;3.67;;;14.90;99.90;;;;;;5037717;28;22576;-84
2022/11/15 11:16:31;;;;;;;7.53;4.00;;;14.60;99.90;;;;;;5037700;28;20429;-88
2022/11/15 11:19:15;;;;;;;6.80;3.33;;;14.60;99.90;;;;;;5040840;28;20452;-87
2022/11/15 11:22:05;;;;;;;4.90;3.37;;;14.50;99.90;;;;;;5039061;28;20987;-87
2022/11/15 11:24:42;;;;;;;7.57;3.93;;;14.50;99.90;;;;;;5038531;28;20486;-85
2022/11/15 11:27:31;;;;;;;4.70;2.87;;;14.40;99.90;;;;;;5058344;28;20427;-87
2022/11/15 11:30:09;;;;;;;2.50;1.80;;;14.40;99.90;;;;;;5066133;28;20430;-86
2022/11/15 11:33:15;;;;;;;3.10;1.93;;;14.40;99.90;;;;;;5084652;28;20491;-86
2022/11/15 11:36:05;;;;;;;4.47;2.60;;;14.70;99.90;;;;;;5103962;22;20416;-86
2022/11/15 11:39:02;;;;;;;2.20;2.00;;;14.80;99.90;;;;;;5053574;28;20855;-86
2022/11/15 11:41:47;;;;;;;10.00;6.50;;;14.90;99.90;;;;;;5044662;28;20422;-86
2022/11/15 11:44:37;;;;;;;9.77;3.23;;;15.40;99.90;;;;;;5032923;28;20469;-87
2022/11/15 11:47:22;;;;;;;6.13;2.70;;;15.70;99.90;;;;;;5045726;28;20471;-87
2022/11/15 11:49:51;;;;;;;9.70;2.23;;;16.00;99.90;;;;;;5036090;28;20444;-86
2022/11/15 11:52:26;;;;;;;2.30;1.40;;;16.00;99.90;;;;;;5051483;28;20417;-87
2022/11/15 11:54:59;;;;;;;4.30;1.53;;;16.00;99.90;;;;;;5035495;28;20418;-86
2022/11/15 11:57:46;;;;;;;2.03;1.33;;;15.90;99.90;;;;;;5032457;28;20413;-86
2022/11/15 12:00:20;;;;;;;4.10;1.80;;;15.70;99.90;;;;;;5042371;28;20413;-87
2022/11/15 12:03:07;;;;;;;2.53;2.33;;;15.90;99.90;;;;;;5034520;28;20898;-85
2022/11/15 12:05:59;;;;;;;6.63;2.50;;;15.90;99.90;;;;;;5040571;28;20426;-85
2022/11/15 12:08:45;;;;;;;6.37;2.90;;;16.30;99.90;;;;;;5046451;28;20416;-84
2022/11/15 12:11:35;;;;;;;7.33;2.90;;;16.50;99.90;;;;;;5049692;28;20404;-85
2022/11/15 12:14:05;;;;;;;6.87;2.70;;;16.70;99.90;;;;;;5031156;28;20494;-85
2022/11/15 12:16:33;;;;;;;7.77;3.40;;;16.30;99.90;;;;;;5036351;28;20487;-85
2022/11/15 12:19:01;;;;;;;6.50;3.90;;;16.30;99.90;;;;;;5036155;28;20523;-86
2022/11/15 12:22:00;;;;;;;10.30;3.57;;;16.30;99.90;;;;;;5034008;28;20416;-85
2022/11/15 12:24:34;;;;;;;9.60;3.97;;;16.20;99.90;;;;;;5043278;28;21108;-85
2022/11/15 12:27:20;;;;;;;16.57;4.83;;;16.20;99.90;;;;;;5034956;28;20446;-86
2022/11/15 12:29:51;;;;;;;6.43;4.70;;;16.50;99.90;;;;;;5032362;28;20539;-87
2022/11/15 12:32:35;;;;;;;6.10;4.33;;;16.60;99.90;;;;;;5047319;28;20511;-88
2022/11/15 12:35:03;;;;;;;7.47;4.57;;;16.70;99.90;;;;;;5032486;28;20432;-85
2022/11/15 12:37:37;;;;;;;6.57;4.60;;;16.60;99.90;;;;;;5034776;28;20471;-86
2022/11/15 12:40:03;;;;;;;8.83;4.50;;;16.30;99.90;;;;;;5052221;28;20447;-86
2022/11/15 12:42:39;;;;;;;4.63;3.93;;;16.10;99.90;;;;;;5055599;28;20970;-86
2022/11/15 12:45:27;;;;;;;6.57;3.87;;;16.00;99.90;;;;;;5036575;28;20174;-85
2022/11/15 12:47:53;;;;;;;5.70;3.70;;;15.80;99.90;;;;;;5053622;28;20441;-86
2022/11/15 12:50:51;;;;;;;6.20;3.60;;;15.80;99.90;;;;;;5037337;28;20523;-86
2022/11/15 12:53:23;;;;;;;10.47;4.97;;;15.50;99.90;;;;;;5051030;28;20201;-86
2022/11/15 12:56:16;;;;;;;6.90;4.53;;;15.30;99.90;;;;;;5050945;28;20532;-84
2022/11/15 12:58:56;;;;;;;8.07;4.67;;;15.00;99.90;;;;;;5035557;28;21144;-88
2022/11/15 13:01:31;;;;;;;7.57;5.37;;;14.90;99.90;;;;;;5032800;28;20433;-87
2022/11/15 13:04:17;;;;;;;16.40;3.90;;;15.00;99.90;;;;;;5035061;28;20889;-86
2022/11/15 13:06:55;;;;;;;3.80;2.90;;;15.20;99.90;;;;;;5050813;28;20510;-85
2022/11/15 13:09:36;;;;;;;5.33;2.40;;;15.20;99.90;;;;;;5051802;28;20435;-88
2022/11/15 13:12:21;;;;;;;9.67;4.23;;;14.90;99.90;;;;;;5048515;28;20440;-84
2022/11/15 13:14:58;;;;;;;11.73;4.40;;;14.90;99.90;;;;;;5037201;28;20496;-86
2022/11/15 13:17:39;;;;;;;6.97;3.90;;;15.10;99.90;;;;;;5037993;28;20427;-85
2022/11/15 13:20:10;;;;;;;10.00;4.50;;;15.30;99.90;;;;;;5036990;28;20440;-84
2022/11/15 13:22:52;;;;;;;5.20;3.17;;;15.40;99.90;;;;;;5039465;28;20459;-86
2022/11/15 13:25:35;;;;;;;7.03;5.30;;;15.30;99.90;;;;;;5037847;28;20991;-83
2022/11/15 13:28:21;;;;;;;4.57;3.10;;;15.10;99.90;;;;;;5052913;28;20779;-89
2022/11/15 13:30:47;;;;;;;5.90;3.80;;;15.10;99.90;;;;;;5034642;28;20440;-84
2022/11/15 13:33:34;;;;;;;7.80;4.77;;;14.90;99.90;;;;;;5035727;28;20444;-87